Time;durP1;ratioP1;P1;durP2;ratioP2;P2;SDS_P1;SDS_P2;PMS_P1;PMS_P2;Temp;Humidity;BMP_temperature;BMP_pressure;BME280_temperature;BME280_humidity;BME280_pressure;Samples;Min_cycle;Max_cycle;Signal;HPM_P1;HPM_P2
2020/12/11 00:00:05;;;;;;;6.35;1.85;;;9.20;99.90;;;;;;2088797;28;20377;-70
2020/12/11 00:01:06;;;;;;;10.75;1.80;;;9.20;99.90;;;;;;2088454;28;20074;-70
2020/12/11 00:02:07;;;;;;;12.75;2.33;;;9.20;99.90;;;;;;2088607;28;20025;-70
2020/12/11 00:03:08;;;;;;;13.70;3.42;;;9.20;99.90;;;;;;2088058;28;20025;-69
2020/12/11 00:04:08;;;;;;;7.45;1.85;;;9.20;99.90;;;;;;2088148;28;20442;-69
2020/12/11 00:05:09;;;;;;;9.93;2.67;;;9.20;99.90;;;;;;2088712;28;20056;-69
2020/12/11 00:06:10;;;;;;;7.60;1.90;;;9.20;99.90;;;;;;2083456;28;20059;-70
2020/12/11 00:07:11;;;;;;;13.48;1.98;;;9.20;99.90;;;;;;2088890;28;20021;-70
2020/12/11 00:08:11;;;;;;;11.48;2.15;;;9.20;99.90;;;;;;2083685;28;20032;-70
2020/12/11 00:09:12;;;;;;;11.90;2.08;;;9.20;99.90;;;;;;2080220;28;20124;-69
2020/12/11 00:10:14;;;;;;;10.63;2.30;;;9.30;99.90;;;;;;2080316;28;20051;-69
2020/12/11 00:11:15;;;;;;;12.75;2.25;;;9.20;99.90;;;;;;2079283;28;20493;-69
2020/12/11 00:12:15;;;;;;;17.60;2.20;;;9.30;99.90;;;;;;2083928;28;20053;-70
2020/12/11 00:13:16;;;;;;;13.45;2.22;;;9.20;99.90;;;;;;2087976;28;20062;-69
2020/12/11 00:14:20;;;;;;;10.68;1.77;;;9.20;99.90;;;;;;2080410;28;20025;-69
2020/12/11 00:15:21;;;;;;;13.80;2.28;;;9.30;99.90;;;;;;2080398;28;20018;-69
2020/12/11 00:16:22;;;;;;;12.25;2.22;;;9.30;99.90;;;;;;2079744;28;20037;-70
2020/12/11 00:17:23;;;;;;;14.57;2.20;;;9.30;99.90;;;;;;2082829;28;20619;-69
2020/12/11 00:18:24;;;;;;;10.80;2.00;;;9.30;99.90;;;;;;2080476;28;20544;-70
2020/12/11 00:19:25;;;;;;;10.82;1.70;;;9.30;99.90;;;;;;2080163;28;20036;-69
2020/12/11 00:20:25;;;;;;;8.10;1.60;;;9.30;99.90;;;;;;2079964;28;20731;-69
2020/12/11 00:21:26;;;;;;;14.63;2.50;;;9.40;99.90;;;;;;2080275;28;20117;-69
2020/12/11 00:22:27;;;;;;;20.25;2.25;;;9.40;99.90;;;;;;2080285;28;20397;-70
2020/12/11 00:23:27;;;;;;;14.38;2.38;;;9.40;99.90;;;;;;2079608;28;20021;-70
2020/12/11 00:24:28;;;;;;;14.48;2.22;;;9.40;99.90;;;;;;2079584;28;20076;-68
2020/12/11 00:25:31;;;;;;;13.80;1.95;;;9.40;99.90;;;;;;2080323;28;20056;-69
2020/12/11 00:26:31;;;;;;;17.13;2.50;;;9.40;99.90;;;;;;2084073;28;20056;-69
2020/12/11 00:27:32;;;;;;;16.38;2.05;;;9.40;99.90;;;;;;2077231;28;20030;-70
2020/12/11 00:28:33;;;;;;;14.75;2.00;;;9.40;99.90;;;;;;2087374;28;20427;-69
2020/12/11 00:29:34;;;;;;;19.33;2.47;;;9.40;99.90;;;;;;2086632;28;20025;-70
2020/12/11 00:30:34;;;;;;;13.68;1.80;;;9.40;99.90;;;;;;2087833;28;20029;-69
2020/12/11 00:31:35;;;;;;;11.80;2.10;;;9.40;99.90;;;;;;2087746;28;20021;-69
2020/12/11 00:32:36;;;;;;;11.85;2.22;;;9.40;99.90;;;;;;2087852;28;20100;-69
2020/12/11 00:33:37;;;;;;;18.30;2.78;;;9.40;99.90;;;;;;2087725;28;20025;-69
2020/12/11 00:34:38;;;;;;;16.85;2.45;;;9.40;99.90;;;;;;2088213;28;20029;-69
2020/12/11 00:35:38;;;;;;;14.52;2.28;;;9.40;99.90;;;;;;2087921;28;20052;-69
2020/12/11 00:36:40;;;;;;;20.23;2.85;;;9.50;99.90;;;;;;2087830;28;20025;-70
2020/12/11 00:37:43;;;;;;;18.45;2.50;;;9.40;99.90;;;;;;2085681;28;20112;-70
2020/12/11 00:38:44;;;;;;;19.95;2.28;;;9.50;99.90;;;;;;2079862;28;20029;-70
2020/12/11 00:39:44;;;;;;;19.52;2.13;;;9.50;99.90;;;;;;2080125;28;20021;-70
2020/12/11 00:40:45;;;;;;;38.58;3.65;;;9.50;99.90;;;;;;2079810;28;20504;-69
2020/12/11 00:41:46;;;;;;;26.20;3.22;;;9.50;99.90;;;;;;2084220;28;20499;-69
2020/12/11 00:42:46;;;;;;;44.10;3.55;;;9.40;99.90;;;;;;2080483;28;20026;-69
2020/12/11 00:43:47;;;;;;;35.15;3.88;;;9.40;99.90;;;;;;2086574;28;20052;-72
2020/12/11 00:44:48;;;;;;;53.70;4.28;;;9.40;99.90;;;;;;2088107;28;20052;-70
2020/12/11 00:45:49;;;;;;;15.57;2.60;;;9.40;99.90;;;;;;2080257;28;20029;-70
2020/12/11 00:46:49;;;;;;;16.90;2.20;;;9.40;99.90;;;;;;2080411;28;20030;-69
2020/12/11 00:47:50;;;;;;;8.48;1.40;;;9.50;99.90;;;;;;2086520;28;20111;-70
2020/12/11 00:48:52;;;;;;;10.98;1.60;;;9.50;99.90;;;;;;2087537;28;20110;-69
2020/12/11 00:49:53;;;;;;;13.27;2.38;;;9.50;99.90;;;;;;2088484;28;20048;-68
2020/12/11 00:50:53;;;;;;;13.18;1.58;;;9.50;99.90;;;;;;2088568;28;20024;-70
2020/12/11 00:51:55;;;;;;;7.93;1.70;;;9.50;99.90;;;;;;2087496;28;20075;-70
2020/12/11 00:52:55;;;;;;;17.27;2.13;;;9.50;99.90;;;;;;2087670;28;20575;-69
2020/12/11 00:53:56;;;;;;;14.77;1.90;;;9.60;99.90;;;;;;2087925;28;20043;-69
2020/12/11 00:54:57;;;;;;;7.97;1.58;;;9.50;99.90;;;;;;2086317;28;20184;-71
2020/12/11 00:55:57;;;;;;;13.02;2.20;;;9.50;99.90;;;;;;2087862;28;20032;-69
2020/12/11 00:56:58;;;;;;;11.60;1.92;;;9.50;99.90;;;;;;2082892;28;20031;-69
2020/12/11 00:57:59;;;;;;;13.05;1.52;;;9.50;99.90;;;;;;2088460;28;20579;-69
2020/12/11 00:58:59;;;;;;;15.32;1.92;;;9.50;99.90;;;;;;2087899;28;20025;-70
2020/12/11 01:00:00;;;;;;;15.30;2.00;;;9.50;99.90;;;;;;2088815;28;20481;-70
2020/12/11 01:01:01;;;;;;;13.10;1.60;;;9.50;99.90;;;;;;2089325;28;20104;-69
2020/12/11 01:02:02;;;;;;;18.08;2.38;;;9.50;99.90;;;;;;2086314;28;20617;-69
2020/12/11 01:03:04;;;;;;;16.57;1.80;;;9.50;99.90;;;;;;2085675;28;20066;-69
2020/12/11 01:04:04;;;;;;;9.93;1.77;;;9.50;99.90;;;;;;2087871;28;20270;-70
2020/12/11 01:05:05;;;;;;;12.02;1.80;;;9.50;99.90;;;;;;2087648;28;20116;-69
2020/12/11 01:06:06;;;;;;;13.48;1.80;;;9.50;99.90;;;;;;2087855;28;20021;-69
2020/12/11 01:07:07;;;;;;;11.48;1.88;;;9.50;99.90;;;;;;2087834;28;20064;-69
2020/12/11 01:08:07;;;;;;;6.72;1.40;;;9.50;99.90;;;;;;2091147;28;20135;-69
2020/12/11 01:09:08;;;;;;;13.38;1.83;;;9.50;99.90;;;;;;2087519;28;20025;-69
2020/12/11 01:10:09;;;;;;;13.45;1.88;;;9.50;99.90;;;;;;2088271;28;20061;-69
2020/12/11 01:11:10;;;;;;;10.57;2.13;;;9.50;99.90;;;;;;2087616;28;20056;-69
2020/12/11 01:12:11;;;;;;;9.82;1.30;;;9.50;99.90;;;;;;2087763;28;20025;-69
2020/12/11 01:13:11;;;;;;;5.43;1.48;;;9.50;99.90;;;;;;2088022;28;20027;-70
2020/12/11 01:14:12;;;;;;;12.48;2.38;;;9.50;99.90;;;;;;2088028;28;20032;-69
2020/12/11 01:15:13;;;;;;;11.10;1.60;;;9.50;99.90;;;;;;2080839;28;20025;-69
2020/12/11 01:16:13;;;;;;;11.57;1.90;;;9.50;99.90;;;;;;2081222;28;20425;-70
2020/12/11 01:17:14;;;;;;;10.00;1.65;;;9.50;99.90;;;;;;2081061;28;20025;-69
2020/12/11 01:18:15;;;;;;;9.68;1.75;;;9.50;99.90;;;;;;2081285;28;20025;-70
2020/12/11 01:19:15;;;;;;;11.07;1.30;;;9.40;99.90;;;;;;2081749;28;20406;-69
2020/12/11 01:20:17;;;;;;;9.93;1.75;;;9.50;99.90;;;;;;2081018;28;20060;-70
2020/12/11 01:21:17;;;;;;;8.18;1.33;;;9.40;99.90;;;;;;2085467;28;20024;-70
2020/12/11 01:22:18;;;;;;;10.77;1.40;;;9.50;99.90;;;;;;2088923;28;20039;-70
2020/12/11 01:23:19;;;;;;;9.70;1.75;;;9.50;99.90;;;;;;2090148;28;20224;-70
2020/12/11 01:24:19;;;;;;;17.27;2.60;;;9.40;99.90;;;;;;2089634;28;20024;-71
2020/12/11 01:25:20;;;;;;;9.07;1.20;;;9.50;99.90;;;;;;2081627;28;20029;-69
2020/12/11 01:26:21;;;;;;;7.07;1.42;;;9.50;99.90;;;;;;2086634;28;20086;-69
2020/12/11 01:27:23;;;;;;;9.63;1.40;;;9.40;99.90;;;;;;2089127;28;20104;-69
2020/12/11 01:28:23;;;;;;;8.40;1.63;;;9.50;99.90;;;;;;2088515;28;20120;-69
2020/12/11 01:29:24;;;;;;;9.10;1.40;;;9.50;99.90;;;;;;2088307;28;20112;-70
2020/12/11 01:30:25;;;;;;;10.05;1.15;;;9.50;99.90;;;;;;2089407;28;20029;-70
2020/12/11 01:31:26;;;;;;;5.88;1.35;;;9.50;99.90;;;;;;2089942;28;20037;-69
2020/12/11 01:32:26;;;;;;;10.05;1.33;;;9.50;99.90;;;;;;2089225;28;20111;-69
2020/12/11 01:33:27;;;;;;;5.40;1.17;;;9.50;99.90;;;;;;2080575;28;20028;-69
2020/12/11 01:34:28;;;;;;;5.72;1.30;;;9.50;99.90;;;;;;2088984;28;20025;-69
2020/12/11 01:35:29;;;;;;;9.18;1.35;;;9.50;99.90;;;;;;2089989;28;20025;-70
2020/12/11 01:36:29;;;;;;;9.43;1.75;;;9.50;99.90;;;;;;2090238;28;20053;-69
2020/12/11 01:37:32;;;;;;;5.38;1.20;;;9.50;99.90;;;;;;2090320;28;20384;-70
2020/12/11 01:38:32;;;;;;;7.18;1.50;;;9.50;99.90;;;;;;2090329;28;20425;-71
2020/12/11 01:39:33;;;;;;;6.55;1.50;;;9.50;99.90;;;;;;2090102;28;20028;-70
2020/12/11 01:40:35;;;;;;;6.20;1.73;;;9.50;99.90;;;;;;2089774;28;20272;-71
2020/12/11 01:41:36;;;;;;;2.60;0.70;;;9.50;99.90;;;;;;2088071;28;20471;-69
2020/12/11 01:42:37;;;;;;;6.78;0.80;;;9.50;99.90;;;;;;2081045;28;20037;-69
2020/12/11 01:43:37;;;;;;;6.50;0.90;;;9.50;99.90;;;;;;2081091;28;20048;-69
2020/12/11 01:44:49;;;;;;;5.53;1.08;;;9.50;99.90;;;;;;2080588;28;20029;-69
2020/12/11 01:45:50;;;;;;;5.40;1.40;;;9.50;99.90;;;;;;2080873;28;20037;-69
2020/12/11 01:46:51;;;;;;;4.03;0.70;;;9.50;99.90;;;;;;2080588;28;20485;-70
2020/12/11 01:47:52;;;;;;;4.47;0.82;;;9.50;99.90;;;;;;2072465;28;20057;-69
2020/12/11 01:48:53;;;;;;;7.80;1.13;;;9.50;99.90;;;;;;2080512;28;20105;-70
2020/12/11 01:49:54;;;;;;;4.53;1.00;;;9.50;99.90;;;;;;2083453;28;20284;-69
2020/12/11 01:50:55;;;;;;;4.97;0.90;;;9.50;99.90;;;;;;2088664;28;20029;-69
2020/12/11 01:51:56;;;;;;;4.13;0.70;;;9.50;99.90;;;;;;2089188;28;20603;-69
2020/12/11 01:52:56;;;;;;;4.60;1.38;;;9.50;99.90;;;;;;2081601;28;20041;-69
2020/12/11 01:53:59;;;;;;;4.68;0.95;;;9.50;99.90;;;;;;2080826;28;20574;-69
2020/12/11 01:55:00;;;;;;;4.60;0.82;;;9.50;99.90;;;;;;2080886;28;20040;-70
2020/12/11 01:56:05;;;;;;;7.68;1.02;;;9.50;99.90;;;;;;2081624;28;20124;-69
2020/12/11 01:57:09;;;;;;;5.65;1.00;;;9.50;99.90;;;;;;2081678;28;20059;-69
2020/12/11 01:58:17;;;;;;;5.07;1.05;;;9.50;99.90;;;;;;2081556;28;20084;-69
2020/12/11 01:59:30;;;;;;;6.13;1.10;;;9.50;99.90;;;;;;2081061;28;20017;-69
2020/12/11 02:00:31;;;;;;;;;;;9.50;99.90;;;;;;2089303;28;20025;-69
2020/12/11 02:01:35;;;;;;;1.35;0.80;;;9.50;99.90;;;;;;2089118;28;19909;-69
2020/12/11 02:02:37;;;;;;;3.45;0.80;;;9.50;99.90;;;;;;2080349;28;20497;-70
2020/12/11 02:03:39;;;;;;;3.80;1.00;;;9.50;99.90;;;;;;2088485;28;20047;-72
2020/12/11 02:04:40;;;;;;;3.30;0.88;;;9.50;99.90;;;;;;2089844;28;20111;-69
2020/12/11 02:05:41;;;;;;;7.32;0.82;;;9.50;99.90;;;;;;2089822;28;20021;-69
2020/12/11 02:06:42;;;;;;;3.80;0.88;;;9.50;99.90;;;;;;2089961;28;20033;-69
2020/12/11 02:07:43;;;;;;;4.38;0.90;;;9.50;99.90;;;;;;2094422;28;20024;-69
2020/12/11 02:08:44;;;;;;;2.17;0.68;;;9.50;99.90;;;;;;2097567;28;20408;-70
2020/12/11 02:09:45;;;;;;;4.38;0.80;;;9.50;99.90;;;;;;2097993;28;20035;-69
2020/12/11 02:10:46;;;;;;;1.02;0.50;;;9.50;99.90;;;;;;2097674;28;20504;-70
2020/12/11 02:11:50;;;;;;;3.72;0.88;;;9.50;99.90;;;;;;2091196;28;20033;-70
2020/12/11 02:12:52;;;;;;;3.15;0.70;;;9.50;99.90;;;;;;2085302;28;20037;-70
2020/12/11 02:13:53;;;;;;;1.02;0.52;;;9.50;99.90;;;;;;2084012;28;20021;-70
2020/12/11 02:14:53;;;;;;;2.53;0.50;;;9.60;99.90;;;;;;2088844;28;20044;-69
2020/12/11 02:15:54;;;;;;;1.65;0.50;;;9.50;99.90;;;;;;2087841;28;20021;-69
2020/12/11 02:16:59;;;;;;;4.60;0.70;;;9.60;99.90;;;;;;2088901;28;20759;-70
2020/12/11 02:18:00;;;;;;;4.38;0.50;;;9.60;99.90;;;;;;2088775;28;20039;-69
2020/12/11 02:19:00;;;;;;;4.95;0.65;;;9.60;99.90;;;;;;2088591;28;20592;-69
2020/12/11 02:20:01;;;;;;;2.90;0.80;;;9.60;99.90;;;;;;2089016;28;20400;-69
2020/12/11 02:21:02;;;;;;;4.95;0.73;;;9.60;99.90;;;;;;2087611;28;20020;-70
2020/12/11 02:22:05;;;;;;;6.17;2.00;;;9.60;99.90;;;;;;2088818;28;20025;-70
2020/12/11 02:23:05;;;;;;;1.75;0.57;;;9.60;99.90;;;;;;2088706;28;20253;-69
2020/12/11 02:24:06;;;;;;;0.50;0.50;;;9.60;99.90;;;;;;2080901;28;20584;-69
2020/12/11 02:25:08;;;;;;;1.30;0.63;;;9.60;99.90;;;;;;2080753;28;20573;-70
2020/12/11 02:26:09;;;;;;;2.80;0.70;;;9.60;99.90;;;;;;2080857;28;20539;-69
2020/12/11 02:27:10;;;;;;;1.88;0.60;;;9.60;99.90;;;;;;2080550;28;20116;-70
2020/12/11 02:28:11;;;;;;;2.65;0.57;;;9.60;99.90;;;;;;2080583;28;22205;-69
2020/12/11 02:29:11;;;;;;;1.58;0.50;;;9.60;99.90;;;;;;2084637;28;20057;-69
2020/12/11 02:30:12;;;;;;;3.70;0.85;;;9.60;99.90;;;;;;2084150;28;20033;-69
2020/12/11 02:31:13;;;;;;;1.88;0.68;;;9.60;99.90;;;;;;2081049;28;20030;-69
2020/12/11 02:32:16;;;;;;;1.77;0.60;;;9.60;99.90;;;;;;2080594;28;20030;-69
2020/12/11 02:33:18;;;;;;;4.78;0.68;;;9.60;99.90;;;;;;2079933;28;20491;-69
2020/12/11 02:34:19;;;;;;;;;;;9.60;99.90;;;;;;2089639;28;20071;-69
2020/12/11 02:35:20;;;;;;;1.83;0.55;;;9.60;99.90;;;;;;2089321;28;19908;-70
2020/12/11 02:36:21;;;;;;;6.22;1.08;;;9.60;99.90;;;;;;2089452;28;20018;-70
2020/12/11 02:37:22;;;;;;;3.70;0.60;;;9.70;99.90;;;;;;2089332;28;20392;-70
2020/12/11 02:38:23;;;;;;;3.22;0.60;;;9.60;99.90;;;;;;2088832;28;20044;-72
2020/12/11 02:39:24;;;;;;;4.47;0.90;;;9.70;99.90;;;;;;2088672;28;20094;-69
2020/12/11 02:40:24;;;;;;;3.33;1.00;;;9.70;99.90;;;;;;2084437;28;20037;-69
2020/12/11 02:41:25;;;;;;;3.10;0.75;;;9.60;99.90;;;;;;2080993;28;20050;-69
2020/12/11 02:42:26;;;;;;;1.75;0.73;;;9.60;99.90;;;;;;2081052;28;20493;-70
2020/12/11 02:43:27;;;;;;;2.47;0.80;;;9.60;99.90;;;;;;2081066;28;20044;-69
2020/12/11 02:44:28;;;;;;;4.18;0.80;;;9.60;99.90;;;;;;2081058;28;20048;-69
2020/12/11 02:45:28;;;;;;;4.40;0.90;;;9.60;99.90;;;;;;2080498;28;20057;-69
2020/12/11 02:46:30;;;;;;;4.60;0.98;;;9.60;99.90;;;;;;2080395;28;20389;-69
2020/12/11 02:47:32;;;;;;;0.70;0.68;;;9.60;99.90;;;;;;2080592;28;20027;-70
2020/12/11 02:48:33;;;;;;;1.55;0.80;;;9.60;99.90;;;;;;2080647;28;20026;-69
2020/12/11 02:49:34;;;;;;;2.28;0.60;;;9.60;99.90;;;;;;2081389;28;20022;-70
2020/12/11 02:50:35;;;;;;;3.03;0.85;;;9.60;99.90;;;;;;2088806;28;20020;-69
2020/12/11 02:51:35;;;;;;;3.38;0.80;;;9.60;99.90;;;;;;2080980;28;20064;-69
2020/12/11 02:52:36;;;;;;;2.72;0.77;;;9.60;99.90;;;;;;2080995;28;20744;-69
2020/12/11 02:53:37;;;;;;;6.75;1.30;;;9.60;99.90;;;;;;2080314;28;20116;-70
2020/12/11 02:54:37;;;;;;;4.72;0.90;;;9.60;99.90;;;;;;2079829;28;20079;-69
2020/12/11 02:55:39;;;;;;;4.93;0.90;;;9.60;99.90;;;;;;2080251;28;20033;-70
2020/12/11 02:56:39;;;;;;;2.85;0.95;;;9.60;99.90;;;;;;2080374;28;20029;-70
2020/12/11 02:57:40;;;;;;;3.50;0.80;;;9.60;99.90;;;;;;2088521;28;20025;-69
2020/12/11 02:58:41;;;;;;;8.10;1.42;;;9.60;99.90;;;;;;2086941;28;20124;-70
2020/12/11 02:59:41;;;;;;;4.32;1.00;;;9.50;99.90;;;;;;2088872;28;20074;-69
2020/12/11 03:00:42;;;;;;;3.08;0.80;;;9.50;99.90;;;;;;2083485;28;20429;-70
2020/12/11 03:01:43;;;;;;;2.40;0.75;;;9.50;99.90;;;;;;2080747;28;20033;-69
2020/12/11 03:02:44;;;;;;;3.97;0.93;;;9.50;99.90;;;;;;2080387;28;20022;-69
2020/12/11 03:03:45;;;;;;;2.22;0.90;;;9.50;99.90;;;;;;2080530;28;20681;-69
2020/12/11 03:04:45;;;;;;;7.00;1.58;;;9.50;99.90;;;;;;2085140;28;20091;-69
2020/12/11 03:05:46;;;;;;;4.93;1.10;;;9.50;99.90;;;;;;2088619;28;20033;-71
2020/12/11 03:06:47;;;;;;;3.90;1.30;;;9.40;99.90;;;;;;2087800;28;20056;-70
2020/12/11 03:07:47;;;;;;;4.68;1.35;;;9.40;99.90;;;;;;2093340;28;20077;-69
2020/12/11 03:08:48;;;;;;;4.78;1.33;;;9.40;99.90;;;;;;2095894;28;20112;-69
2020/12/11 03:09:49;;;;;;;4.85;1.10;;;9.40;99.90;;;;;;2096563;28;20031;-70
2020/12/11 03:10:49;;;;;;;7.95;1.20;;;9.30;99.90;;;;;;2097178;28;20107;-70
2020/12/11 03:11:50;;;;;;;2.67;1.05;;;9.30;99.90;;;;;;2096818;28;20024;-69
2020/12/11 03:12:51;;;;;;;5.05;0.98;;;9.30;99.90;;;;;;2090745;28;20135;-69
2020/12/11 03:13:53;;;;;;;4.43;1.00;;;9.30;99.90;;;;;;2088231;28;20032;-69
2020/12/11 03:14:53;;;;;;;5.30;1.00;;;9.30;99.90;;;;;;2088194;28;20492;-69
2020/12/11 03:15:55;;;;;;;3.88;1.10;;;9.30;99.90;;;;;;2088414;28;20128;-69
2020/12/11 03:16:56;;;;;;;4.00;0.88;;;9.30;99.90;;;;;;2083498;28;20025;-70
2020/12/11 03:17:57;;;;;;;2.15;1.05;;;9.30;99.90;;;;;;2088965;28;20028;-69
2020/12/11 03:18:58;;;;;;;2.30;0.98;;;9.30;99.90;;;;;;2088809;28;20025;-69
2020/12/11 03:19:58;;;;;;;2.78;0.90;;;9.30;99.90;;;;;;2087326;28;20372;-70
2020/12/11 03:20:59;;;;;;;3.30;0.82;;;9.30;99.90;;;;;;2088694;28;20123;-69
2020/12/11 03:22:00;;;;;;;3.47;0.88;;;9.40;99.90;;;;;;2089000;28;20431;-70
2020/12/11 03:23:00;;;;;;;2.08;0.80;;;9.30;99.90;;;;;;2088247;28;20024;-69
2020/12/11 03:24:01;;;;;;;3.25;0.90;;;9.30;99.90;;;;;;2088326;28;20783;-70
2020/12/11 03:25:03;;;;;;;3.92;0.90;;;9.30;99.90;;;;;;2087274;28;20044;-70
2020/12/11 03:26:04;;;;;;;2.88;0.80;;;9.30;99.90;;;;;;2087976;28;20029;-70
2020/12/11 03:27:05;;;;;;;2.17;0.80;;;9.30;99.90;;;;;;2088417;28;20048;-70
2020/12/11 03:28:05;;;;;;;3.97;0.73;;;9.30;99.90;;;;;;2088848;28;20757;-69
2020/12/11 03:29:06;;;;;;;2.55;0.70;;;9.30;99.90;;;;;;2087381;28;20041;-72
2020/12/11 03:30:07;;;;;;;2.25;0.60;;;9.30;99.90;;;;;;2076375;28;20028;-70
2020/12/11 03:31:08;;;;;;;2.45;0.70;;;9.30;99.90;;;;;;2084900;28;20060;-69
2020/12/11 03:32:09;;;;;;;1.90;0.60;;;9.30;99.90;;;;;;2080335;28;20063;-69
2020/12/11 03:33:09;;;;;;;3.40;0.60;;;9.40;99.90;;;;;;2080577;28;20021;-69
2020/12/11 03:34:10;;;;;;;0.95;0.30;;;9.40;99.90;;;;;;2086693;28;20035;-69
2020/12/11 03:35:11;;;;;;;2.67;0.50;;;9.40;99.90;;;;;;2088240;28;20518;-70
2020/12/11 03:36:17;;;;;;;2.63;0.60;;;9.50;99.90;;;;;;2087808;28;20021;-70
2020/12/11 03:37:17;;;;;;;2.45;0.50;;;9.50;99.90;;;;;;2088099;28;20037;-70
2020/12/11 03:38:18;;;;;;;0.55;0.40;;;9.50;99.90;;;;;;2088270;28;20025;-69
2020/12/11 03:39:19;;;;;;;1.55;0.50;;;9.60;99.90;;;;;;2080528;28;20021;-69
2020/12/11 03:40:19;;;;;;;1.15;0.50;;;9.60;99.90;;;;;;2088074;28;20374;-70
2020/12/11 03:41:20;;;;;;;0.93;0.28;;;9.70;99.90;;;;;;2086593;28;20086;-69
2020/12/11 03:42:21;;;;;;;0.80;0.38;;;9.70;99.90;;;;;;2088060;28;20509;-70
2020/12/11 03:43:22;;;;;;;2.63;0.73;;;9.70;99.90;;;;;;2087981;28;20083;-69
2020/12/11 03:44:22;;;;;;;1.42;0.50;;;9.80;99.90;;;;;;2088436;28;20028;-69
2020/12/11 03:45:23;;;;;;;1.38;0.43;;;9.80;99.90;;;;;;2088927;28;20033;-70
2020/12/11 03:46:24;;;;;;;1.23;0.40;;;9.90;99.90;;;;;;2086438;28;20443;-69
2020/12/11 03:47:25;;;;;;;1.25;0.45;;;9.90;99.90;;;;;;2079799;28;20514;-70
2020/12/11 03:48:25;;;;;;;1.48;0.30;;;9.90;99.90;;;;;;2080626;28;20026;-70
2020/12/11 03:49:26;;;;;;;0.80;0.40;;;10.00;99.90;;;;;;2079641;28;20030;-70
2020/12/11 03:50:27;;;;;;;1.95;0.50;;;10.10;99.90;;;;;;2080804;28;20546;-71
2020/12/11 03:51:28;;;;;;;1.95;0.40;;;10.10;99.90;;;;;;2080905;28;20117;-70
2020/12/11 03:52:29;;;;;;;1.83;0.55;;;10.10;99.90;;;;;;2080323;28;20032;-69
2020/12/11 03:53:30;;;;;;;0.60;0.57;;;10.10;99.90;;;;;;2080471;28;20095;-71
2020/12/11 03:54:30;;;;;;;1.48;0.70;;;10.10;99.90;;;;;;2080176;28;20082;-69
2020/12/11 03:55:32;;;;;;;1.23;0.60;;;10.10;99.90;;;;;;2088554;28;20029;-70
2020/12/11 03:56:32;;;;;;;5.63;0.73;;;10.10;99.90;;;;;;2088684;28;20021;-69
2020/12/11 03:57:33;;;;;;;1.73;0.60;;;10.10;99.90;;;;;;2088839;28;20133;-69
2020/12/11 03:58:34;;;;;;;2.15;0.60;;;10.00;99.90;;;;;;2088576;28;20024;-69
2020/12/11 03:59:35;;;;;;;1.75;0.60;;;10.00;99.90;;;;;;2088576;28;20641;-70
2020/12/11 04:00:35;;;;;;;1.77;0.43;;;10.10;99.90;;;;;;2086911;28;20079;-69
2020/12/11 04:01:36;;;;;;;0.88;0.60;;;10.10;99.90;;;;;;2079670;28;20045;-70
2020/12/11 04:02:37;;;;;;;1.92;0.75;;;10.10;99.90;;;;;;2079741;28;20100;-69
2020/12/11 04:03:38;;;;;;;1.40;0.55;;;10.20;99.90;;;;;;2079585;28;20053;-69
2020/12/11 04:04:39;;;;;;;3.67;0.70;;;10.10;99.90;;;;;;2079681;28;20052;-69
2020/12/11 04:05:40;;;;;;;2.83;0.63;;;10.10;99.90;;;;;;2079602;28;20034;-70
2020/12/11 04:06:41;;;;;;;0.90;0.60;;;10.10;99.90;;;;;;2079803;28;20035;-70
2020/12/11 04:07:41;;;;;;;1.95;0.77;;;10.10;99.90;;;;;;2081163;28;20021;-69
2020/12/11 04:08:44;;;;;;;1.15;0.70;;;10.10;99.90;;;;;;2080217;28;20074;-69
2020/12/11 04:09:44;;;;;;;3.40;0.80;;;10.10;99.90;;;;;;2080292;28;20060;-69
2020/12/11 04:10:45;;;;;;;4.60;1.00;;;10.00;99.90;;;;;;2080202;28;20056;-69
2020/12/11 04:11:46;;;;;;;1.92;0.77;;;10.00;99.90;;;;;;2079883;28;20021;-69
2020/12/11 04:12:47;;;;;;;2.63;1.20;;;10.00;99.90;;;;;;2079990;28;20017;-69
2020/12/11 04:13:48;;;;;;;3.08;0.70;;;10.00;99.90;;;;;;2079664;28;20055;-69
2020/12/11 04:14:49;;;;;;;2.80;0.68;;;10.00;99.90;;;;;;2080265;28;20032;-69
2020/12/11 04:15:50;;;;;;;1.92;0.80;;;10.00;99.90;;;;;;2087522;28;20029;-69
2020/12/11 04:16:51;;;;;;;2.03;0.80;;;10.00;99.90;;;;;;2088045;28;20108;-70
2020/12/11 04:17:51;;;;;;;3.95;1.02;;;9.90;99.90;;;;;;2088284;28;20083;-70
2020/12/11 04:18:52;;;;;;;3.70;0.93;;;9.90;99.90;;;;;;2088442;28;20108;-69
2020/12/11 04:19:53;;;;;;;2.40;0.90;;;9.90;99.90;;;;;;2087937;28;20114;-69
2020/12/11 04:20:56;;;;;;;2.47;0.80;;;9.90;99.90;;;;;;2088001;28;20021;-69
2020/12/11 04:21:57;;;;;;;3.42;1.00;;;9.90;99.90;;;;;;2088896;28;20028;-68
2020/12/11 04:22:58;;;;;;;0.90;0.55;;;10.00;99.90;;;;;;2089120;28;20025;-69
2020/12/11 04:23:59;;;;;;;3.90;1.05;;;10.00;99.90;;;;;;2087030;28;20091;-72
2020/12/11 04:24:59;;;;;;;2.42;0.90;;;10.00;99.90;;;;;;2088416;28;20068;-69
2020/12/11 04:26:00;;;;;;;1.60;1.00;;;10.00;99.90;;;;;;2089052;28;20025;-70
2020/12/11 04:27:01;;;;;;;2.35;0.70;;;10.00;99.90;;;;;;2087715;28;20017;-69
2020/12/11 04:28:01;;;;;;;3.38;1.00;;;10.00;99.90;;;;;;2087371;28;20021;-70
2020/12/11 04:29:02;;;;;;;2.83;0.75;;;10.00;99.90;;;;;;2087137;28;20115;-69
2020/12/11 04:30:03;;;;;;;2.33;0.70;;;10.10;99.90;;;;;;2087016;28;20549;-69
2020/12/11 04:31:04;;;;;;;3.28;1.08;;;10.10;99.90;;;;;;2087008;28;20059;-69
2020/12/11 04:32:05;;;;;;;4.72;0.90;;;10.10;99.90;;;;;;2087262;28;20029;-69
2020/12/11 04:33:07;;;;;;;3.28;0.70;;;10.10;99.90;;;;;;2086159;28;20552;-70
2020/12/11 04:34:07;;;;;;;3.17;0.65;;;10.20;99.90;;;;;;2087955;28;20541;-69
2020/12/11 04:35:08;;;;;;;6.90;1.02;;;10.20;99.90;;;;;;2088106;28;20029;-69
2020/12/11 04:36:16;;;;;;;2.72;0.70;;;10.20;99.90;;;;;;2088199;28;20029;-69
2020/12/11 04:37:16;;;;;;;4.28;0.80;;;10.20;99.90;;;;;;2087802;28;20816;-69
2020/12/11 04:38:17;;;;;;;3.65;0.82;;;10.20;99.90;;;;;;2087889;28;20024;-69
2020/12/11 04:39:18;;;;;;;2.38;0.80;;;10.20;99.90;;;;;;2087555;28;20029;-70
2020/12/11 04:40:19;;;;;;;2.60;1.00;;;10.20;99.90;;;;;;2079872;28;20045;-70
2020/12/11 04:41:20;;;;;;;3.80;0.80;;;10.20;99.90;;;;;;2087591;28;20046;-70
2020/12/11 04:42:23;;;;;;;4.38;0.98;;;10.20;99.90;;;;;;2086269;28;20128;-68
2020/12/11 04:43:24;;;;;;;;;;;10.20;99.90;;;;;;2088256;28;20492;-69
2020/12/11 04:44:26;;;;;;;1.65;0.63;;;10.20;99.90;;;;;;2088363;28;19905;-69
2020/12/11 04:45:27;;;;;;;3.13;0.90;;;10.20;99.90;;;;;;2088076;28;20100;-69
2020/12/11 04:46:28;;;;;;;1.67;0.70;;;10.20;99.90;;;;;;2088005;28;20036;-69
2020/12/11 04:47:29;;;;;;;0.68;0.68;;;10.20;99.90;;;;;;2086620;28;20029;-69
2020/12/11 04:48:30;;;;;;;1.23;0.60;;;10.20;99.90;;;;;;2080145;28;20029;-69
2020/12/11 04:49:34;;;;;;;5.53;0.68;;;10.20;99.90;;;;;;2081160;28;20029;-70
2020/12/11 04:50:36;;;;;;;2.53;0.80;;;10.20;99.90;;;;;;2082032;28;20404;-70
2020/12/11 04:51:47;;;;;;;3.70;0.80;;;10.20;99.90;;;;;;2081938;28;20025;-70
2020/12/11 04:52:48;;;;;;;2.10;0.70;;;10.20;99.90;;;;;;2081258;28;20025;-69
2020/12/11 04:53:52;;;;;;;4.10;0.88;;;10.20;99.90;;;;;;2081188;28;20034;-69
2020/12/11 04:54:58;;;;;;;2.47;0.60;;;10.20;99.90;;;;;;2081901;28;20032;-69
2020/12/11 04:56:02;;;;;;;3.95;0.75;;;10.20;99.90;;;;;;2082827;28;20031;-69
2020/12/11 04:57:08;;;;;;;1.50;0.50;;;10.20;99.90;;;;;;2090018;28;20417;-69
2020/12/11 04:58:11;;;;;;;3.25;0.70;;;10.20;99.90;;;;;;2087354;28;20525;-70
2020/12/11 04:59:12;;;;;;;2.97;0.70;;;10.20;99.90;;;;;;2080870;28;20543;-70
2020/12/11 05:00:16;;;;;;;2.35;0.73;;;10.20;99.90;;;;;;2081202;28;20025;-70
2020/12/11 05:01:29;;;;;;;1.15;0.52;;;10.20;99.90;;;;;;2081235;28;20084;-70
2020/12/11 05:02:31;;;;;;;2.72;0.90;;;10.20;99.90;;;;;;2081525;28;20105;-70
2020/12/11 05:03:33;;;;;;;0.63;0.60;;;10.20;99.90;;;;;;2085473;28;20033;-69
2020/12/11 05:04:34;;;;;;;2.53;0.47;;;10.20;99.90;;;;;;2090053;28;20040;-70
2020/12/11 05:05:35;;;;;;;4.47;1.20;;;10.20;99.90;;;;;;2090084;28;20477;-70
2020/12/11 05:06:36;;;;;;;2.60;0.52;;;10.20;99.90;;;;;;2090127;28;20029;-70
2020/12/11 05:07:37;;;;;;;2.80;0.60;;;10.30;99.90;;;;;;2093975;28;20017;-70
2020/12/11 05:08:38;;;;;;;1.55;0.63;;;10.30;99.90;;;;;;2092526;28;20111;-70
2020/12/11 05:09:40;;;;;;;2.42;0.63;;;10.30;99.90;;;;;;2089803;28;20032;-70
2020/12/11 05:10:40;;;;;;;6.05;1.25;;;10.40;99.90;;;;;;2090138;28;20112;-70
2020/12/11 05:11:43;;;;;;;3.10;0.50;;;10.40;99.90;;;;;;2088853;28;20037;-70
2020/12/11 05:12:44;;;;;;;1.02;0.60;;;10.40;99.90;;;;;;2089204;28;20029;-70
2020/12/11 05:13:45;;;;;;;4.35;0.90;;;10.40;99.90;;;;;;2089572;28;20021;-70
2020/12/11 05:14:45;;;;;;;4.38;0.75;;;10.40;99.90;;;;;;2083355;28;20032;-70
2020/12/11 05:16:06;;;;;;;6.82;1.42;;;10.40;99.90;;;;;;2081783;28;20496;-70
2020/12/11 05:17:07;;;;;;;3.20;0.80;;;10.40;99.90;;;;;;2081785;28;20075;-68
2020/12/11 05:18:17;;;;;;;4.20;0.90;;;10.40;99.90;;;;;;2084579;28;20071;-70
2020/12/11 05:19:18;;;;;;;3.05;0.80;;;10.40;99.90;;;;;;2083585;28;20084;-70
2020/12/11 05:20:19;;;;;;;4.82;0.90;;;10.40;99.90;;;;;;2086217;28;20567;-69
2020/12/11 05:21:22;;;;;;;3.28;0.70;;;10.40;99.90;;;;;;2081294;28;20116;-69